createdAt,value
2023-01-26T00:00:25.608Z,97128.28
2023-01-26T00:02:54.817Z,97123.13
2023-01-26T00:05:23.661Z,97111.06
2023-01-26T00:07:52.604Z,97132.50
2023-01-26T00:10:21.531Z,97140.56
2023-01-26T00:12:50.489Z,97135.88
2023-01-26T00:15:19.263Z,97134.13
2023-01-26T00:17:48.163Z,97129.13
2023-01-26T00:20:17.235Z,97134.59
2023-01-26T00:22:46.113Z,97124.59
2023-01-26T00:25:14.970Z,97132.31
2023-01-26T00:27:43.818Z,97124.44
2023-01-26T00:30:14.351Z,97132.69
2023-01-26T00:32:43.251Z,97134.13
2023-01-26T00:35:12.099Z,97128.00
2023-01-26T00:37:43.958Z,97131.25
2023-01-26T00:40:17.388Z,97129.81
2023-01-26T00:42:46.304Z,97131.25
2023-01-26T00:45:15.218Z,97146.22
2023-01-26T00:47:45.821Z,97136.91
2023-01-26T00:50:15.089Z,97133.16
2023-01-26T00:52:44.133Z,97140.94
2023-01-26T00:55:13.139Z,97129.03
2023-01-26T00:57:42.727Z,97141.41
2023-01-26T01:00:17.551Z,97123.91
2023-01-26T01:02:46.897Z,97144.34
2023-01-26T01:05:15.837Z,97130.19
2023-01-26T01:07:44.691Z,97143.06
2023-01-26T01:10:13.864Z,97139.69
2023-01-26T01:12:44.719Z,97135.16
2023-01-26T01:15:14.277Z,97145.63
2023-01-26T01:17:43.435Z,97134.34
2023-01-26T01:20:12.948Z,97128.09
2023-01-26T01:22:43.409Z,97134.34
2023-01-26T01:25:12.835Z,97135.81
2023-01-26T01:27:41.850Z,97122.41
2023-01-26T01:30:11.759Z,97119.69
2023-01-26T01:32:40.805Z,97129.69
2023-01-26T01:35:10.585Z,97120.97
2023-01-26T01:37:39.450Z,97118.88
2023-01-26T01:40:13.525Z,97117.09
2023-01-26T01:42:48.777Z,97112.56
2023-01-26T01:45:41.921Z,97113.94
2023-01-26T01:48:29.968Z,97107.31
2023-01-26T01:51:03.729Z,97105.34
2023-01-26T01:53:38.255Z,97107.38
2023-01-26T01:56:13.597Z,97088.19
2023-01-26T01:58:44.914Z,97103.44
2023-01-26T02:01:14.930Z,97096.50
2023-01-26T02:03:47.468Z,97085.53
2023-01-26T02:07:02.725Z,97105.94
2023-01-26T02:09:55.664Z,97099.53
2023-01-26T02:12:30.413Z,97108.75
2023-01-26T02:14:59.596Z,97103.09
2023-01-26T02:17:28.621Z,97090.22
2023-01-26T02:20:16.090Z,97102.16
2023-01-26T02:23:06.225Z,97095.66
2023-01-26T02:25:46.259Z,97079.63
2023-01-26T02:28:15.131Z,97091.00
2023-01-26T02:30:44.857Z,97083.59
2023-01-26T02:33:21.657Z,97092.56
2023-01-26T02:35:54.153Z,97070.81
2023-01-26T02:38:26.529Z,97082.28
2023-01-26T02:41:02.337Z,97074.38
2023-01-26T02:43:31.381Z,97079.09
2023-01-26T02:46:00.901Z,97066.72
2023-01-26T02:48:48.362Z,97069.66
2023-01-26T02:51:17.276Z,97066.19
2023-01-26T02:53:48.385Z,97050.72
2023-01-26T02:56:17.243Z,97068.13
2023-01-26T02:58:46.141Z,97070.59
2023-01-26T03:01:16.066Z,97066.63
2023-01-26T03:03:48.785Z,97039.28
2023-01-26T03:06:17.906Z,97066.50
2023-01-26T03:08:46.764Z,97054.28
2023-01-26T03:11:16.272Z,97059.06
2023-01-26T03:13:45.326Z,97060.09
2023-01-26T03:16:18.956Z,97051.88
2023-01-26T03:19:06.158Z,97052.66
2023-01-26T03:21:53.516Z,97046.09
2023-01-26T03:24:40.903Z,97057.28
2023-01-26T03:27:29.218Z,97055.09
2023-01-26T03:30:04.101Z,97040.06
2023-01-26T03:32:33.497Z,97018.25
2023-01-26T03:35:04.209Z,97040.88
2023-01-26T03:37:37.559Z,97037.47
2023-01-26T03:40:32.224Z,97037.09
2023-01-26T03:43:29.264Z,97033.06
2023-01-26T03:46:16.550Z,97025.22
2023-01-26T03:49:03.883Z,97029.78
2023-01-26T03:51:51.402Z,97022.13
2023-01-26T03:54:38.754Z,97024.28
2023-01-26T03:57:07.821Z,97018.41
2023-01-26T03:59:40.081Z,97011.38
2023-01-26T04:02:32.689Z,97006.44
2023-01-26T04:05:21.737Z,97000.72
2023-01-26T04:08:13.998Z,97016.41
2023-01-26T04:10:42.954Z,97019.53
2023-01-26T04:13:30.302Z,97012.09
2023-01-26T04:16:23.629Z,97017.50
2023-01-26T04:19:11.324Z,97005.88
2023-01-26T04:21:40.315Z,97014.28
2023-01-26T04:24:17.437Z,97004.69
2023-01-26T04:26:48.050Z,97006.69
2023-01-26T04:29:24.652Z,97014.50
2023-01-26T04:31:53.616Z,96990.06
2023-01-26T04:34:24.279Z,96998.66
2023-01-26T04:36:53.392Z,97002.84
2023-01-26T04:39:26.207Z,97004.81
2023-01-26T04:41:58.389Z,97002.38
2023-01-26T04:44:27.312Z,97003.88
2023-01-26T04:46:56.189Z,97000.66
2023-01-26T04:49:25.034Z,97001.00
2023-01-26T04:51:54.321Z,97005.97
2023-01-26T04:54:24.351Z,96999.16
2023-01-26T04:56:54.248Z,96991.69
2023-01-26T04:59:23.117Z,96987.81
2023-01-26T05:01:57.272Z,96992.78
2023-01-26T05:04:26.523Z,96995.75
2023-01-26T05:06:55.930Z,97002.69
2023-01-26T05:09:27.326Z,96993.59
2023-01-26T05:12:32.633Z,96987.44
2023-01-26T05:15:24.408Z,96984.56
2023-01-26T05:18:04.971Z,96980.81
2023-01-26T05:20:40.819Z,96986.50
2023-01-26T05:23:35.517Z,96972.69
2023-01-26T05:26:05.204Z,96965.50
2023-01-26T05:28:44.740Z,96978.47
2023-01-26T05:31:14.373Z,96981.16
2023-01-26T05:33:43.257Z,96974.38
2023-01-26T05:36:15.244Z,96971.03
2023-01-26T05:38:44.151Z,96970.00
2023-01-26T05:41:13.812Z,96968.41
2023-01-26T05:43:56.538Z,96966.03
2023-01-26T05:46:36.951Z,96955.53
2023-01-26T05:49:05.807Z,96959.41
2023-01-26T05:51:35.305Z,96958.88
2023-01-26T05:54:06.486Z,96948.25
2023-01-26T05:56:35.888Z,96959.53
2023-01-26T05:59:07.227Z,96950.88
2023-01-26T06:01:36.919Z,96957.28
2023-01-26T06:04:09.699Z,96948.50
2023-01-26T06:06:45.562Z,96945.31
2023-01-26T06:09:32.977Z,96933.69
2023-01-26T06:12:18.808Z,96934.22
2023-01-26T06:15:13.873Z,96939.19
2023-01-26T06:17:46.195Z,96923.81
2023-01-26T06:20:16.880Z,96933.16
2023-01-26T06:22:54.716Z,96917.56
2023-01-26T06:25:23.588Z,96921.50
2023-01-26T06:27:52.755Z,96913.97
2023-01-26T06:30:27.943Z,96914.66
2023-01-26T06:33:02.439Z,96917.81
2023-01-26T06:35:36.704Z,96901.63
2023-01-26T06:38:08.077Z,96890.91
2023-01-26T06:40:36.913Z,96903.00
2023-01-26T06:43:07.447Z,96910.06
2023-01-26T06:45:36.588Z,96902.00
2023-01-26T06:48:05.662Z,96894.16
2023-01-26T06:50:36.786Z,96896.16
2023-01-26T06:53:34.757Z,96901.06
2023-01-26T06:56:32.971Z,96893.63
2023-01-26T06:59:21.623Z,96900.69
2023-01-26T07:02:29.331Z,96898.03
2023-01-26T07:04:58.791Z,96886.81
2023-01-26T07:07:27.665Z,96893.38
2023-01-26T07:09:56.537Z,96896.41
2023-01-26T07:12:25.810Z,96900.38
2023-01-26T07:14:54.608Z,96899.09
2023-01-26T07:17:23.479Z,96892.41
2023-01-26T07:19:52.447Z,96896.09
2023-01-26T07:22:21.393Z,96892.50
2023-01-26T07:24:50.583Z,96887.75
2023-01-26T07:27:19.542Z,96891.53
2023-01-26T07:29:48.445Z,96884.25
2023-01-26T07:32:17.441Z,96890.72
2023-01-26T07:34:46.646Z,96874.91
2023-01-26T07:37:15.950Z,96877.75
2023-01-26T07:39:44.914Z,96874.31
2023-01-26T07:42:13.935Z,96873.75
2023-01-26T07:44:48.716Z,96862.25
2023-01-26T07:47:17.684Z,96861.66
2023-01-26T07:49:47.627Z,96870.66
2023-01-26T07:52:16.776Z,96866.72
2023-01-26T07:54:45.771Z,96860.47
2023-01-26T07:57:14.692Z,96863.41
2023-01-26T07:59:43.633Z,96871.63
2023-01-26T08:02:13.418Z,96866.66
2023-01-26T08:04:42.599Z,96859.25
2023-01-26T08:07:11.623Z,96861.16
2023-01-26T08:09:40.734Z,96869.50
2023-01-26T08:12:09.661Z,96870.50
2023-01-26T08:14:46.784Z,96866.81
2023-01-26T08:17:17.949Z,96864.59
2023-01-26T08:19:47.587Z,96863.84
2023-01-26T08:22:16.623Z,96862.75
2023-01-26T08:24:45.581Z,96850.19
2023-01-26T08:27:15.350Z,96857.66
2023-01-26T08:29:44.304Z,96852.09
2023-01-26T08:32:13.143Z,96850.72
2023-01-26T08:34:41.912Z,96843.50
2023-01-26T08:37:10.862Z,96834.72
2023-01-26T08:39:39.774Z,96836.53
2023-01-26T08:42:08.735Z,96838.34
2023-01-26T08:44:37.676Z,96829.69
2023-01-26T08:47:06.814Z,96833.69
2023-01-26T08:49:37.018Z,96832.13
2023-01-26T08:52:06.040Z,96830.72
2023-01-26T08:54:35.129Z,96804.91
2023-01-26T08:57:04.280Z,96824.13
2023-01-26T08:59:33.542Z,96805.72
2023-01-26T09:02:03.620Z,96812.88
2023-01-26T09:04:32.897Z,96807.31
2023-01-26T09:07:02.031Z,96802.72
2023-01-26T09:09:31.364Z,96801.16
2023-01-26T09:12:05.836Z,96752.28
2023-01-26T09:14:34.686Z,96800.19
2023-01-26T09:17:03.582Z,96791.00
2023-01-26T09:19:32.791Z,96795.59
2023-01-26T09:22:01.760Z,96785.00
2023-01-26T09:24:30.795Z,96793.41
2023-01-26T09:26:59.730Z,96793.97
2023-01-26T09:29:28.672Z,96795.34
2023-01-26T09:31:57.815Z,96782.34
2023-01-26T09:34:27.691Z,96776.94
2023-01-26T09:36:56.893Z,96769.56
2023-01-26T09:39:26.469Z,96778.97
2023-01-26T09:42:25.200Z,96787.94
2023-01-26T09:45:18.110Z,96781.56
2023-01-26T09:48:08.365Z,96788.13
2023-01-26T09:50:56.490Z,96777.69
2023-01-26T09:53:43.930Z,96783.88
2023-01-26T09:56:19.097Z,96779.47
2023-01-26T09:59:00.933Z,96771.25
2023-01-26T10:01:44.965Z,96774.88
2023-01-26T10:04:26.069Z,96781.50
2023-01-26T10:06:57.572Z,96772.66
2023-01-26T10:09:52.347Z,96773.69
2023-01-26T10:12:26.377Z,96773.69
2023-01-26T10:15:22.488Z,96772.84
2023-01-26T10:17:53.567Z,96765.88
2023-01-26T10:20:32.064Z,96769.44
2023-01-26T10:23:17.423Z,96766.78
2023-01-26T10:25:49.785Z,96760.38
2023-01-26T10:28:26.377Z,96762.88
2023-01-26T10:30:55.358Z,96775.28
2023-01-26T10:33:38.102Z,96750.44
2023-01-26T10:36:08.737Z,96767.84
2023-01-26T10:38:37.642Z,96766.25
2023-01-26T10:41:18.853Z,96761.63
2023-01-26T10:44:12.445Z,96765.19
2023-01-26T10:46:43.594Z,96765.56
2023-01-26T10:49:12.445Z,96753.94
2023-01-26T10:51:45.792Z,96755.34
2023-01-26T10:54:28.127Z,96755.53
2023-01-26T10:57:22.542Z,96755.09
2023-01-26T11:00:11.380Z,96753.72
2023-01-26T11:02:51.973Z,96749.09
2023-01-26T11:05:30.110Z,96754.25
2023-01-26T11:08:04.007Z,96753.22
2023-01-26T11:10:38.420Z,96750.22
2023-01-26T11:13:20.774Z,96746.78
2023-01-26T11:16:01.500Z,96745.34
2023-01-26T11:18:55.546Z,96747.97
2023-01-26T11:21:41.135Z,96743.75
2023-01-26T11:24:34.406Z,96746.19
2023-01-26T11:27:33.754Z,96748.34
2023-01-26T11:30:10.474Z,96745.13
2023-01-26T11:32:51.217Z,96751.16
2023-01-26T11:35:30.843Z,96739.94
2023-01-26T11:38:10.259Z,96740.75
2023-01-26T11:40:49.453Z,96740.88
2023-01-26T11:43:47.428Z,96738.09
2023-01-26T11:46:43.873Z,96735.03
2023-01-26T11:49:50.044Z,96739.25
2023-01-26T11:52:47.712Z,96728.59
2023-01-26T11:55:44.381Z,96722.56
2023-01-26T11:58:19.129Z,96727.16
2023-01-26T12:00:58.494Z,96708.53
2023-01-26T12:03:50.878Z,96716.91
2023-01-26T12:06:27.441Z,96715.44
2023-01-26T12:09:04.315Z,96707.75
2023-01-26T12:11:39.948Z,96688.41
2023-01-26T12:14:36.292Z,96707.34
2023-01-26T12:17:18.105Z,96704.28
2023-01-26T12:20:40.788Z,96713.50
2023-01-26T12:23:09.708Z,96711.47
2023-01-26T12:25:42.214Z,96713.44
2023-01-26T12:28:38.458Z,96705.16
2023-01-26T12:31:10.653Z,96706.97
2023-01-26T12:33:40.059Z,96700.16
2023-01-26T12:36:42.897Z,96698.13
2023-01-26T12:39:37.864Z,96683.34
2023-01-26T12:42:17.308Z,96690.53
2023-01-26T12:45:03.003Z,96667.56
2023-01-26T12:48:03.705Z,96673.25
2023-01-26T12:50:43.563Z,96674.88
2023-01-26T12:53:23.699Z,96662.28
2023-01-26T12:56:24.909Z,96670.81
2023-01-26T12:58:56.164Z,96667.97
2023-01-26T13:01:31.166Z,96674.78
2023-01-26T13:04:07.414Z,96665.59
2023-01-26T13:06:36.478Z,96667.56
2023-01-26T13:09:23.911Z,96669.50
2023-01-26T13:11:59.613Z,96675.31
2023-01-26T13:14:46.717Z,96670.66
2023-01-26T13:17:19.583Z,96675.56
2023-01-26T13:19:48.487Z,96674.34
2023-01-26T13:22:21.035Z,96678.09
2023-01-26T13:24:50.812Z,96670.41
2023-01-26T13:27:30.219Z,96670.19
2023-01-26T13:29:59.661Z,96662.91
2023-01-26T13:32:28.567Z,96664.28
2023-01-26T13:35:01.070Z,96668.06
2023-01-26T13:37:51.150Z,96664.22
2023-01-26T13:40:36.261Z,96657.19
2023-01-26T13:43:28.192Z,96655.81
2023-01-26T13:46:03.929Z,96658.56
2023-01-26T13:48:45.519Z,96649.91
2023-01-26T13:51:21.305Z,96641.31
2023-01-26T13:54:00.302Z,96643.69
2023-01-26T13:56:38.133Z,96642.44
2023-01-26T13:59:21.348Z,96633.03
2023-01-26T14:01:57.118Z,96640.41
2023-01-26T14:04:28.956Z,96634.84
2023-01-26T14:07:03.185Z,96634.16
2023-01-26T14:09:35.954Z,96637.56
2023-01-26T14:12:06.968Z,96641.53
2023-01-26T14:14:38.390Z,96630.09
2023-01-26T14:17:23.389Z,96631.44
2023-01-26T14:19:52.436Z,96627.81
2023-01-26T14:22:22.349Z,96631.78
2023-01-26T14:24:53.814Z,96627.59
2023-01-26T14:27:39.044Z,96628.50
2023-01-26T14:30:28.166Z,96630.44
2023-01-26T14:33:14.970Z,96627.63
2023-01-26T14:35:58.026Z,96626.81
2023-01-26T14:38:29.546Z,96631.69
2023-01-26T14:41:01.905Z,96625.56
2023-01-26T14:43:31.026Z,96619.31
2023-01-26T14:46:02.099Z,96625.81
2023-01-26T14:48:35.610Z,96628.31
2023-01-26T14:51:07.490Z,96631.84
2023-01-26T14:53:36.502Z,96621.72
2023-01-26T14:56:05.879Z,96626.28
2023-01-26T14:58:35.163Z,96614.00
2023-01-26T15:01:05.655Z,96624.59
2023-01-26T15:03:38.375Z,96623.34
2023-01-26T15:06:22.731Z,96616.63
2023-01-26T15:09:07.212Z,96613.19
2023-01-26T15:11:59.137Z,96608.78
2023-01-26T15:14:30.964Z,96612.88
2023-01-26T15:17:00.190Z,96610.72
2023-01-26T15:19:38.923Z,96604.13
2023-01-26T15:22:22.965Z,96604.47
2023-01-26T15:25:06.669Z,96609.94
2023-01-26T15:27:37.476Z,96615.81
2023-01-26T15:30:08.560Z,96613.56
2023-01-26T15:32:41.068Z,96619.78
2023-01-26T15:35:36.401Z,96621.41
2023-01-26T15:38:13.426Z,96620.38
2023-01-26T15:40:42.416Z,96604.69
2023-01-26T15:43:11.189Z,96607.88
2023-01-26T15:45:44.141Z,96614.34
2023-01-26T15:48:12.959Z,96608.69
2023-01-26T15:50:41.802Z,96611.94
2023-01-26T15:53:14.951Z,96610.59
2023-01-26T15:55:44.927Z,96618.09
2023-01-26T15:58:13.827Z,96627.31
2023-01-26T16:00:43.881Z,96623.66
2023-01-26T16:03:19.222Z,96622.53
2023-01-26T16:05:49.280Z,96615.72
2023-01-26T16:08:19.842Z,96629.94
2023-01-26T16:10:49.194Z,96631.97
2023-01-26T16:13:20.399Z,96623.56
2023-01-26T16:15:51.133Z,96629.81
2023-01-26T16:18:21.268Z,96632.66
2023-01-26T16:20:51.043Z,96632.06
2023-01-26T16:23:23.625Z,96627.41
2023-01-26T16:25:53.298Z,96636.75
2023-01-26T16:28:22.905Z,96631.84
2023-01-26T16:30:51.951Z,96628.31
2023-01-26T16:33:25.186Z,96629.69
2023-01-26T16:35:55.263Z,96633.13
2023-01-26T16:38:24.189Z,96637.28
2023-01-26T16:40:54.871Z,96631.84
2023-01-26T16:43:28.047Z,96627.19
2023-01-26T16:45:57.190Z,96626.19
2023-01-26T16:48:26.496Z,96612.88
2023-01-26T16:50:55.441Z,96618.44
2023-01-26T16:53:28.886Z,96613.56
2023-01-26T16:55:57.865Z,96610.72
2023-01-26T16:58:27.147Z,96608.91
2023-01-26T17:00:56.885Z,96609.94
2023-01-26T17:03:26.633Z,96609.94
2023-01-26T17:05:57.091Z,96610.47
2023-01-26T17:08:26.037Z,96601.06
2023-01-26T17:11:02.533Z,96597.09
2023-01-26T17:13:34.993Z,96604.47
2023-01-26T17:16:04.073Z,96602.97
2023-01-26T17:18:35.251Z,96599.81
2023-01-26T17:21:09.783Z,96596.16
2023-01-26T17:23:42.117Z,96593.00
2023-01-26T17:26:26.199Z,96599.00
2023-01-26T17:28:56.629Z,96598.78
2023-01-26T17:31:26.483Z,96600.84
2023-01-26T17:33:55.837Z,96595.13
2023-01-26T17:36:24.839Z,96599.34
2023-01-26T17:38:54.032Z,96596.75
2023-01-26T17:41:22.919Z,96603.78
2023-01-26T17:43:51.931Z,96601.16
2023-01-26T17:46:22.202Z,96591.41
2023-01-26T17:48:51.590Z,96593.00
2023-01-26T17:51:23.774Z,96591.97
2023-01-26T17:53:52.983Z,96597.63
2023-01-26T17:56:23.033Z,96593.78
2023-01-26T17:58:56.115Z,96600.03
2023-01-26T18:01:27.560Z,96592.41
2023-01-26T18:03:56.622Z,96595.59
2023-01-26T18:06:25.767Z,96586.63
2023-01-26T18:08:55.068Z,96586.94
2023-01-26T18:11:24.063Z,96585.94
2023-01-26T18:13:56.206Z,96589.13
2023-01-26T18:16:25.244Z,96584.91
2023-01-26T18:18:59.037Z,96591.50
2023-01-26T18:21:30.134Z,96581.28
2023-01-26T18:24:01.916Z,96594.13
2023-01-26T18:26:38.612Z,96589.91
2023-01-26T18:29:07.880Z,96590.94
2023-01-26T18:31:41.195Z,96596.75
2023-01-26T18:34:12.802Z,96599.34
2023-01-26T18:36:41.796Z,96595.50
2023-01-26T18:39:14.008Z,96600.50
2023-01-26T18:41:43.886Z,96594.69
2023-01-26T18:44:13.472Z,96591.63
2023-01-26T18:46:42.807Z,96593.53
2023-01-26T18:49:11.977Z,96579.56
2023-01-26T18:51:42.847Z,96588.88
2023-01-26T18:54:12.324Z,96586.25
2023-01-26T18:56:41.702Z,96583.88
2023-01-26T18:59:11.569Z,96586.81
2023-01-26T19:01:41.297Z,96582.31
2023-01-26T19:04:11.201Z,96583.31
2023-01-26T19:06:40.325Z,96575.72
2023-01-26T19:09:09.990Z,96580.94
2023-01-26T19:11:40.035Z,96581.94
2023-01-26T19:14:09.297Z,96569.34
2023-01-26T19:16:38.628Z,96566.50
2023-01-26T19:19:07.612Z,96572.28
2023-01-26T19:21:36.508Z,96567.06
2023-01-26T19:24:08.613Z,96567.06
2023-01-26T19:26:37.456Z,96560.69
2023-01-26T19:29:06.839Z,96560.69
2023-01-26T19:31:36.562Z,96565.81
2023-01-26T19:34:07.879Z,96563.75
2023-01-26T19:36:37.518Z,96572.38
2023-01-26T19:39:07.534Z,96565.34
2023-01-26T19:41:36.539Z,96564.53
2023-01-26T19:44:06.122Z,96565.91
2023-01-26T19:46:34.994Z,96560.69
2023-01-26T19:49:04.016Z,96554.44
2023-01-26T19:51:33.689Z,96553.84
2023-01-26T19:54:02.586Z,96547.84
2023-01-26T19:56:35.810Z,96550.34
2023-01-26T19:59:07.324Z,96552.72
2023-01-26T20:01:37.956Z,96555.88
2023-01-26T20:04:10.023Z,96562.69
2023-01-26T20:06:39.327Z,96554.31
2023-01-26T20:09:09.374Z,96552.81
2023-01-26T20:11:38.276Z,96551.56
2023-01-26T20:14:11.612Z,96561.56
2023-01-26T20:16:40.798Z,96552.13
2023-01-26T20:19:11.620Z,96551.88
2023-01-26T20:21:41.094Z,96548.47
2023-01-26T20:24:19.494Z,96559.25
2023-01-26T20:26:48.832Z,96554.84
2023-01-26T20:29:20.731Z,96560.84
2023-01-26T20:31:50.508Z,96551.41
2023-01-26T20:34:22.506Z,96543.56
2023-01-26T20:36:52.622Z,96556.44
2023-01-26T20:39:25.744Z,96545.50
2023-01-26T20:41:55.855Z,96546.03
2023-01-26T20:44:25.056Z,96548.91
2023-01-26T20:46:54.083Z,96534.47
2023-01-26T20:49:23.091Z,96536.84
2023-01-26T20:51:52.048Z,96522.44
2023-01-26T20:54:21.020Z,96518.75
2023-01-26T20:56:52.036Z,96516.97
2023-01-26T20:59:22.705Z,96523.56
2023-01-26T21:01:52.693Z,96520.34
2023-01-26T21:04:22.130Z,96514.34
2023-01-26T21:06:51.114Z,96508.31
2023-01-26T21:09:21.719Z,96507.53
2023-01-26T21:11:50.710Z,96503.88
2023-01-26T21:14:19.734Z,96505.25
2023-01-26T21:16:48.836Z,96490.56
2023-01-26T21:19:17.781Z,96492.47
2023-01-26T21:21:46.742Z,96486.44
2023-01-26T21:24:15.766Z,96486.78
2023-01-26T21:26:45.119Z,96487.00
2023-01-26T21:29:16.661Z,96485.75
2023-01-26T21:31:49.906Z,96476.31
2023-01-26T21:34:19.019Z,96468.00
2023-01-26T21:36:48.066Z,96469.81
2023-01-26T21:39:17.317Z,96445.28
2023-01-26T21:41:59.601Z,96461.97
2023-01-26T21:44:33.858Z,96448.56
2023-01-26T21:47:05.032Z,96456.97
2023-01-26T21:49:34.018Z,96437.88
2023-01-26T21:52:21.269Z,96441.34
2023-01-26T21:54:50.186Z,96438.75
2023-01-26T21:57:37.640Z,96447.16
2023-01-26T22:00:07.554Z,96438.25
2023-01-26T22:02:36.780Z,96442.72
2023-01-26T22:05:06.183Z,96438.34
2023-01-26T22:07:35.479Z,96436.84
2023-01-26T22:10:06.654Z,96439.56
2023-01-26T22:12:36.311Z,96434.09
2023-01-26T22:15:06.255Z,96422.84
2023-01-26T22:17:35.262Z,96416.53
2023-01-26T22:20:05.870Z,96419.81
2023-01-26T22:22:35.359Z,96411.97
2023-01-26T22:25:04.179Z,96403.06
2023-01-26T22:27:33.064Z,96402.59
2023-01-26T22:30:02.139Z,96408.09
2023-01-26T22:32:32.586Z,96410.31
2023-01-26T22:35:01.560Z,96413.22
2023-01-26T22:37:31.306Z,96408.78
2023-01-26T22:40:00.356Z,96405.06
2023-01-26T22:42:29.276Z,96401.72
2023-01-26T22:44:58.785Z,96397.06
2023-01-26T22:47:27.518Z,96391.00
2023-01-26T22:49:56.347Z,96389.41
2023-01-26T22:52:25.295Z,96389.72
2023-01-26T22:54:54.487Z,96377.13
2023-01-26T22:57:23.375Z,96376.09
2023-01-26T22:59:52.447Z,96373.25
2023-01-26T23:02:22.340Z,96375.84
2023-01-26T23:04:51.618Z,96367.75
2023-01-26T23:07:20.380Z,96359.59
2023-01-26T23:09:49.289Z,96356.25
2023-01-26T23:12:18.151Z,96355.22
2023-01-26T23:14:47.073Z,96356.56
2023-01-26T23:17:16.035Z,96357.13
2023-01-26T23:19:44.948Z,96344.47
2023-01-26T23:22:13.861Z,96351.56
2023-01-26T23:25:02.602Z,96357.66
2023-01-26T23:27:32.203Z,96346.94
2023-01-26T23:30:03.053Z,96350.13
2023-01-26T23:32:38.556Z,96351.97
2023-01-26T23:35:07.758Z,96336.47
2023-01-26T23:37:36.667Z,96334.34
2023-01-26T23:40:05.965Z,96337.50
2023-01-26T23:42:45.270Z,96312.34
2023-01-26T23:45:23.853Z,96312.09
2023-01-26T23:47:52.623Z,96309.25
2023-01-26T23:50:21.412Z,96300.38
2023-01-26T23:52:50.243Z,96298.78
2023-01-26T23:55:19.234Z,96306.38
2023-01-26T23:57:48.124Z,96303.22
